Time;durP1;ratioP1;P1;durP2;ratioP2;P2;SDS_P1;SDS_P2;PMS_P1;PMS_P2;Temp;Humidity;BMP_temperature;BMP_pressure;BME280_temperature;BME280_humidity;BME280_pressure;Samples;Min_cycle;Max_cycle;Signal;HPM_P1;HPM_P2
2021/12/11 00:00:54;;;;;;;36.33;19.30;;;3.40;99.90;;;;;;5065439;28;20608;-64
2021/12/11 00:03:25;;;;;;;45.40;22.07;;;3.40;99.90;;;;;;5065749;28;20204;-64
2021/12/11 00:05:59;;;;;;;42.17;21.07;;;3.40;99.90;;;;;;5077613;28;20203;-64
2021/12/11 00:08:31;;;;;;;42.63;21.93;;;3.40;99.90;;;;;;5064901;28;20280;-64
2021/12/11 00:11:08;;;;;;;39.47;20.47;;;3.50;99.90;;;;;;5071040;28;20227;-64
2021/12/11 00:13:39;;;;;;;44.87;22.07;;;3.50;99.90;;;;;;5072884;28;20557;-64
2021/12/11 00:16:09;;;;;;;47.37;22.37;;;3.50;99.90;;;;;;5077881;28;20204;-64
2021/12/11 00:18:38;;;;;;;44.33;21.73;;;3.60;99.90;;;;;;5064796;28;20254;-64
2021/12/11 00:21:09;;;;;;;44.33;21.90;;;3.60;99.90;;;;;;5073084;28;20250;-63
2021/12/11 00:23:42;;;;;;;42.30;20.33;;;3.60;99.90;;;;;;5083536;28;20768;-64
2021/12/11 00:26:13;;;;;;;38.83;19.03;;;3.80;99.90;;;;;;5073616;28;20660;-64
2021/12/11 00:28:46;;;;;;;36.93;16.30;;;3.80;99.90;;;;;;5068814;28;20288;-64
2021/12/11 00:31:15;;;;;;;32.67;15.80;;;3.80;99.90;;;;;;5063261;28;20192;-64
2021/12/11 00:33:45;;;;;;;28.97;13.37;;;3.90;99.90;;;;;;5068156;28;20580;-64
2021/12/11 00:36:16;;;;;;;32.53;11.87;;;4.00;99.90;;;;;;5071454;28;20200;-64
2021/12/11 00:38:48;;;;;;;22.77;8.83;;;4.10;99.90;;;;;;5063067;28;20247;-64
2021/12/11 00:41:20;;;;;;;26.73;8.17;;;4.20;99.90;;;;;;5069544;28;20732;-64
2021/12/11 00:43:51;;;;;;;15.83;6.53;;;4.30;99.90;;;;;;5068633;28;20211;-65
2021/12/11 00:46:26;;;;;;;20.53;5.70;;;4.50;99.90;;;;;;5071368;28;20204;-64
2021/12/11 00:48:56;;;;;;;13.33;4.30;;;4.60;99.90;;;;;;5078086;28;20192;-64
2021/12/11 00:51:24;;;;;;;16.10;3.60;;;4.70;99.90;;;;;;5070711;28;20261;-64
2021/12/11 00:53:55;;;;;;;8.33;2.90;;;4.70;99.90;;;;;;5071733;28;20870;-64
2021/12/11 00:56:29;;;;;;;13.80;2.60;;;4.70;99.90;;;;;;5071579;28;20295;-64
2021/12/11 00:59:04;;;;;;;10.27;3.10;;;4.70;99.90;;;;;;5087106;28;20202;-64
2021/12/11 01:01:36;;;;;;;4.67;2.43;;;4.70;99.90;;;;;;5069259;28;20265;-64
2021/12/11 01:04:42;;;;;;;6.40;2.50;;;4.80;99.90;;;;;;5068608;28;20703;-64
2021/12/11 01:07:49;;;;;;;12.63;2.90;;;4.90;99.90;;;;;;5060438;28;20215;-64
2021/12/11 01:10:24;;;;;;;11.93;2.70;;;4.80;99.90;;;;;;5069316;28;20717;-64
2021/12/11 01:13:00;;;;;;;8.90;2.90;;;4.90;99.90;;;;;;5061099;28;20270;-64
2021/12/11 01:15:33;;;;;;;8.60;2.47;;;4.80;99.90;;;;;;5069768;28;20656;-64
2021/12/11 01:18:21;;;;;;;10.40;2.70;;;4.80;99.90;;;;;;5075740;28;20653;-64
2021/12/11 01:20:57;;;;;;;7.50;2.90;;;4.80;99.90;;;;;;5066901;28;20209;-65
2021/12/11 01:23:45;;;;;;;16.37;3.17;;;4.80;99.90;;;;;;5069120;28;20493;-64
2021/12/11 01:26:20;;;;;;;7.23;3.30;;;4.80;99.90;;;;;;5076079;28;20223;-64
2021/12/11 01:28:51;;;;;;;12.43;2.87;;;4.90;99.90;;;;;;5066316;28;20700;-64
2021/12/11 01:31:22;;;;;;;12.33;2.90;;;4.90;99.90;;;;;;5067678;28;20726;-64
2021/12/11 01:33:54;;;;;;;10.60;2.60;;;5.00;99.90;;;;;;5063069;28;20206;-64
2021/12/11 01:36:22;;;;;;;11.17;2.90;;;4.90;99.90;;;;;;5065282;28;20547;-65
2021/12/11 01:38:55;;;;;;;11.53;2.80;;;4.90;99.90;;;;;;5063311;28;20282;-64
2021/12/11 01:41:25;;;;;;;9.43;2.73;;;4.90;99.90;;;;;;5064803;28;20200;-64
2021/12/11 01:44:01;;;;;;;11.27;2.90;;;4.90;99.90;;;;;;5064660;28;20222;-64
2021/12/11 01:46:29;;;;;;;7.00;2.60;;;4.90;99.90;;;;;;5066073;28;20664;-65
2021/12/11 01:49:02;;;;;;;12.17;3.20;;;4.90;99.90;;;;;;5066638;28;20329;-64
2021/12/11 01:51:34;;;;;;;12.83;3.43;;;4.90;99.90;;;;;;5061799;28;20709;-64
2021/12/11 01:54:11;;;;;;;11.93;3.77;;;4.90;99.90;;;;;;5062176;28;20230;-64
2021/12/11 01:56:42;;;;;;;12.47;4.20;;;5.00;99.90;;;;;;5066446;28;20215;-65
2021/12/11 01:59:15;;;;;;;15.43;4.27;;;5.00;99.90;;;;;;5061692;28;20282;-64
2021/12/11 02:01:47;;;;;;;17.57;4.63;;;5.00;99.90;;;;;;5061587;28;20189;-64
2021/12/11 02:04:18;;;;;;;16.80;4.70;;;5.00;99.90;;;;;;5062020;28;20200;-64
2021/12/11 02:06:50;;;;;;;15.73;5.00;;;5.10;99.90;;;;;;5063877;28;20732;-64
2021/12/11 02:09:23;;;;;;;13.73;4.10;;;5.10;99.90;;;;;;5078591;28;20416;-64
2021/12/11 02:12:01;;;;;;;22.10;5.10;;;5.10;99.90;;;;;;5065814;28;20258;-64
2021/12/11 02:14:37;;;;;;;14.63;4.63;;;5.10;99.90;;;;;;5063193;28;20307;-64
2021/12/11 02:17:06;;;;;;;17.17;5.10;;;5.20;99.90;;;;;;5064783;28;20474;-64
2021/12/11 02:19:39;;;;;;;16.37;5.60;;;5.20;99.90;;;;;;5066549;28;20232;-64
2021/12/11 02:22:12;;;;;;;20.47;6.10;;;5.20;99.90;;;;;;5082768;28;20632;-64
2021/12/11 02:24:45;;;;;;;14.37;5.80;;;5.20;99.90;;;;;;5065507;28;20655;-64
2021/12/11 02:27:20;;;;;;;19.27;7.20;;;5.20;99.90;;;;;;5063411;28;20188;-64
2021/12/11 02:29:53;;;;;;;22.87;8.47;;;5.20;99.90;;;;;;5061700;28;20673;-65
2021/12/11 02:32:30;;;;;;;24.97;8.83;;;5.20;99.90;;;;;;5060517;28;20637;-64
2021/12/11 02:35:02;;;;;;;30.80;9.17;;;5.20;99.90;;;;;;5066896;28;20207;-64
2021/12/11 02:37:38;;;;;;;31.30;8.03;;;5.30;99.90;;;;;;5079412;28;20289;-64
2021/12/11 02:40:16;;;;;;;27.83;7.70;;;5.30;99.90;;;;;;5064749;28;20281;-64
2021/12/11 02:42:52;;;;;;;24.53;8.00;;;5.30;99.90;;;;;;5068423;28;20748;-64
2021/12/11 02:45:26;;;;;;;20.87;7.33;;;5.30;99.90;;;;;;5063720;28;20278;-64
2021/12/11 02:47:59;;;;;;;30.20;7.67;;;5.20;99.90;;;;;;5072442;28;20192;-64
2021/12/11 02:50:31;;;;;;;41.57;7.13;;;5.20;99.90;;;;;;5067066;28;20282;-64
2021/12/11 02:53:06;;;;;;;33.80;6.03;;;5.20;99.90;;;;;;5064337;28;20249;-64
2021/12/11 02:55:38;;;;;;;31.80;5.40;;;5.30;99.90;;;;;;5068599;28;20195;-64
2021/12/11 02:58:14;;;;;;;28.83;5.70;;;5.30;99.90;;;;;;5071865;28;20281;-65
2021/12/11 03:00:47;;;;;;;25.97;5.60;;;5.30;99.90;;;;;;5071262;28;20551;-64
2021/12/11 03:03:18;;;;;;;23.50;4.60;;;5.30;99.90;;;;;;5067097;28;20230;-64
2021/12/11 03:05:56;;;;;;;16.17;4.60;;;5.20;99.90;;;;;;5069368;28;20229;-64
2021/12/11 03:08:26;;;;;;;30.87;5.30;;;5.10;99.90;;;;;;5075199;28;20191;-64
2021/12/11 03:10:59;;;;;;;35.30;5.67;;;5.10;99.90;;;;;;5072289;28;20278;-65
2021/12/11 03:13:31;;;;;;;25.17;4.77;;;5.10;99.90;;;;;;5068492;28;20243;-64
2021/12/11 03:15:59;;;;;;;26.47;5.10;;;5.10;99.90;;;;;;5063950;28;20732;-65
2021/12/11 03:18:28;;;;;;;29.27;5.20;;;5.20;99.90;;;;;;5076135;28;20624;-64
2021/12/11 03:20:57;;;;;;;27.97;4.80;;;5.20;99.90;;;;;;5067643;28;20265;-64
2021/12/11 03:23:27;;;;;;;21.63;4.57;;;5.20;99.90;;;;;;5069550;28;20211;-64
2021/12/11 03:25:56;;;;;;;19.07;4.63;;;5.20;99.90;;;;;;5072568;28;20231;-64
2021/12/11 03:28:25;;;;;;;32.37;5.37;;;5.20;99.90;;;;;;5065708;28;20196;-64
2021/12/11 03:30:59;;;;;;;26.57;4.80;;;5.20;99.90;;;;;;5079992;28;20196;-64
2021/12/11 03:33:31;;;;;;;32.23;4.80;;;5.20;99.90;;;;;;5070000;28;20216;-65
2021/12/11 03:36:02;;;;;;;21.83;4.67;;;5.20;99.90;;;;;;5066879;28;20828;-64
2021/12/11 03:38:33;;;;;;;32.97;5.07;;;5.10;99.90;;;;;;5068392;28;20218;-64
2021/12/11 03:41:03;;;;;;;29.67;4.40;;;5.10;99.90;;;;;;5067268;28;20313;-64
2021/12/11 03:43:32;;;;;;;23.70;4.70;;;5.10;99.90;;;;;;5065560;28;20762;-64
2021/12/11 03:46:07;;;;;;;32.00;5.40;;;5.10;99.90;;;;;;5066411;28;20293;-64
2021/12/11 03:48:38;;;;;;;30.40;4.03;;;5.10;99.90;;;;;;5078229;28;20207;-64
2021/12/11 03:51:14;;;;;;;22.67;4.67;;;5.10;99.90;;;;;;5070486;28;20207;-64
2021/12/11 03:53:45;;;;;;;29.87;4.97;;;5.10;99.90;;;;;;5068979;28;20608;-65
2021/12/11 03:56:17;;;;;;;15.77;4.37;;;5.10;99.90;;;;;;5069738;28;20232;-64
2021/12/11 03:58:50;;;;;;;22.13;4.43;;;5.00;99.90;;;;;;5068679;28;20211;-64
2021/12/11 04:01:24;;;;;;;23.60;4.30;;;5.00;99.90;;;;;;5068243;28;20684;-64
2021/12/11 04:03:56;;;;;;;20.70;3.67;;;5.00;99.90;;;;;;5083852;28;20679;-64
2021/12/11 04:06:26;;;;;;;18.30;4.20;;;4.90;99.90;;;;;;5071131;28;20200;-64
2021/12/11 04:08:57;;;;;;;29.83;4.57;;;4.90;99.90;;;;;;5078524;28;20244;-64
2021/12/11 04:11:28;;;;;;;38.10;4.97;;;4.90;99.90;;;;;;5065638;28;20180;-64
2021/12/11 04:14:00;;;;;;;23.77;4.53;;;4.90;99.90;;;;;;5073217;28;20197;-65
2021/12/11 04:16:29;;;;;;;18.23;3.70;;;4.90;99.90;;;;;;5070162;28;20660;-64
2021/12/11 04:18:57;;;;;;;20.13;4.50;;;4.80;99.90;;;;;;5069643;28;20746;-64
2021/12/11 04:21:27;;;;;;;21.00;4.27;;;4.80;99.90;;;;;;5067549;28;20192;-64
2021/12/11 04:23:56;;;;;;;20.83;4.23;;;4.80;99.90;;;;;;5087287;28;20200;-65
2021/12/11 04:26:25;;;;;;;27.57;4.43;;;4.80;99.90;;;;;;5080340;28;20192;-64
2021/12/11 04:28:54;;;;;;;28.67;4.83;;;4.80;99.90;;;;;;5073148;28;20284;-64
2021/12/11 04:31:25;;;;;;;28.20;4.80;;;4.80;99.90;;;;;;5071053;28;20340;-64
2021/12/11 04:33:59;;;;;;;26.90;4.87;;;4.80;99.90;;;;;;5066052;28;20200;-64
2021/12/11 04:36:32;;;;;;;24.30;4.70;;;4.80;99.90;;;;;;5069242;28;20200;-64
2021/12/11 04:39:04;;;;;;;31.73;4.90;;;4.70;99.90;;;;;;5071088;28;20215;-64
2021/12/11 04:41:41;;;;;;;31.17;4.87;;;4.80;99.90;;;;;;5068472;28;20652;-64
2021/12/11 04:44:15;;;;;;;18.10;4.27;;;4.70;99.90;;;;;;5088311;28;20199;-64
2021/12/11 04:46:44;;;;;;;22.40;4.57;;;4.70;99.90;;;;;;5070548;28;20440;-64
2021/12/11 04:49:18;;;;;;;23.23;4.43;;;4.70;99.90;;;;;;5070623;28;20276;-64
2021/12/11 04:52:01;;;;;;;26.30;4.57;;;4.60;99.90;;;;;;5067660;28;20243;-64
2021/12/11 04:54:46;;;;;;;24.90;5.27;;;4.60;99.90;;;;;;5082039;28;20256;-64
2021/12/11 04:57:53;;;;;;;17.47;4.13;;;4.50;99.90;;;;;;5062570;28;20205;-64
2021/12/11 05:00:37;;;;;;;25.10;4.80;;;4.40;99.90;;;;;;5066744;28;20224;-64
2021/12/11 05:06:14;;;;;;;20.33;4.40;;;4.40;99.90;;;;;;5062418;28;20243;-64
2021/12/11 05:11:53;;;;;;;25.27;5.03;;;4.40;99.90;;;;;;5049248;28;20204;-64
2021/12/11 05:14:26;;;;;;;29.37;4.57;;;4.40;99.90;;;;;;5045195;28;20204;-64
2021/12/11 05:16:54;;;;;;;19.83;4.47;;;4.30;99.90;;;;;;5049312;28;20231;-64
2021/12/11 05:19:23;;;;;;;24.20;4.63;;;4.30;99.90;;;;;;5068388;28;20464;-64
2021/12/11 05:21:51;;;;;;;31.73;4.90;;;4.20;99.90;;;;;;5067257;28;20265;-64
2021/12/11 05:24:20;;;;;;;23.70;4.53;;;4.20;99.90;;;;;;5074714;28;20228;-64
2021/12/11 05:26:51;;;;;;;35.97;5.03;;;4.10;99.90;;;;;;5068283;28;20200;-64
2021/12/11 05:29:19;;;;;;;30.33;5.17;;;4.10;99.90;;;;;;5071013;28;20192;-64
2021/12/11 05:31:48;;;;;;;33.27;5.60;;;4.10;99.90;;;;;;5065409;28;20206;-64
2021/12/11 05:34:16;;;;;;;23.57;4.87;;;4.00;99.90;;;;;;5069862;28;20196;-64
2021/12/11 05:36:46;;;;;;;23.90;5.03;;;3.90;99.90;;;;;;5067279;28;20250;-64
2021/12/11 05:39:19;;;;;;;17.90;4.40;;;3.90;99.90;;;;;;5066300;28;20747;-64
2021/12/11 05:41:52;;;;;;;26.60;4.50;;;3.80;99.90;;;;;;5067550;28;20188;-64
2021/12/11 05:44:23;;;;;;;17.80;4.50;;;3.70;99.90;;;;;;5072321;28;20723;-64
2021/12/11 05:46:53;;;;;;;19.27;4.97;;;3.70;99.90;;;;;;5068162;28;20216;-64
2021/12/11 05:49:28;;;;;;;18.43;4.60;;;3.60;99.90;;;;;;5070703;28;20629;-64
2021/12/11 05:51:59;;;;;;;29.53;5.50;;;3.60;99.90;;;;;;5068067;28;20195;-64
2021/12/11 05:54:29;;;;;;;19.73;4.50;;;3.60;99.90;;;;;;5073944;28;20224;-64
2021/12/11 05:57:03;;;;;;;28.23;5.27;;;3.50;99.90;;;;;;5072720;28;20224;-64
2021/12/11 05:59:32;;;;;;;29.47;5.20;;;3.50;99.90;;;;;;5077235;28;20628;-64
2021/12/11 06:02:06;;;;;;;27.10;5.83;;;3.50;99.90;;;;;;5066425;28;20283;-64
2021/12/11 06:04:37;;;;;;;32.53;6.20;;;3.40;99.90;;;;;;5052061;28;20230;-64
2021/12/11 06:07:08;;;;;;;20.23;5.77;;;3.40;99.90;;;;;;5077302;28;20199;-64
2021/12/11 06:09:38;;;;;;;28.50;5.10;;;3.40;99.90;;;;;;5064821;28;20188;-64
2021/12/11 06:12:14;;;;;;;25.93;5.40;;;3.40;99.90;;;;;;5067032;28;20204;-64
2021/12/11 06:14:44;;;;;;;22.77;5.50;;;3.30;99.90;;;;;;5084433;28;20195;-64
2021/12/11 06:17:16;;;;;;;31.63;6.10;;;3.30;99.90;;;;;;5062455;28;20200;-64
2021/12/11 06:19:50;;;;;;;29.10;6.17;;;3.30;99.90;;;;;;5066246;28;20246;-64
2021/12/11 06:22:21;;;;;;;24.87;6.67;;;3.20;99.90;;;;;;5061906;28;20231;-64
2021/12/11 06:24:50;;;;;;;30.77;6.57;;;3.10;99.90;;;;;;5064026;28;20208;-64
2021/12/11 06:27:20;;;;;;;22.77;6.03;;;3.10;99.90;;;;;;5065670;28;20196;-64
2021/12/11 06:29:49;;;;;;;23.23;5.97;;;3.10;99.90;;;;;;5063420;28;20337;-64
2021/12/11 06:32:18;;;;;;;35.70;6.73;;;3.10;99.90;;;;;;5066349;28;20210;-64
2021/12/11 06:34:46;;;;;;;29.53;6.33;;;3.00;99.90;;;;;;5063881;28;20265;-64
2021/12/11 06:37:16;;;;;;;30.53;6.33;;;3.00;99.90;;;;;;5070987;28;20693;-64
2021/12/11 06:39:45;;;;;;;31.13;6.47;;;3.00;99.90;;;;;;5067594;28;20235;-64
2021/12/11 06:42:18;;;;;;;26.97;6.13;;;3.00;99.90;;;;;;5071176;28;20196;-64
2021/12/11 06:44:49;;;;;;;24.47;6.37;;;2.90;99.90;;;;;;5064948;28;20275;-64
2021/12/11 06:47:19;;;;;;;28.33;9.30;;;2.90;99.90;;;;;;5069196;28;20242;-64
2021/12/11 06:49:48;;;;;;;31.80;9.97;;;2.80;99.90;;;;;;5067284;28;20204;-64
2021/12/11 06:52:20;;;;;;;32.60;7.57;;;2.80;99.90;;;;;;5062005;28;20253;-64
2021/12/11 06:54:49;;;;;;;31.17;8.23;;;2.80;99.90;;;;;;5063427;28;20203;-63
2021/12/11 06:57:19;;;;;;;30.03;8.30;;;2.80;99.90;;;;;;5058846;28;20192;-64
2021/12/11 06:59:49;;;;;;;26.80;8.97;;;2.70;99.90;;;;;;5060839;28;20196;-64
2021/12/11 07:02:19;;;;;;;38.93;9.80;;;2.70;99.90;;;;;;5069529;28;20234;-64
2021/12/11 07:04:49;;;;;;;24.37;8.80;;;2.70;99.90;;;;;;5066416;28;20200;-64
2021/12/11 07:07:22;;;;;;;38.40;9.93;;;2.70;99.90;;;;;;5066969;28;20220;-64
2021/12/11 07:09:52;;;;;;;27.83;8.47;;;2.70;99.90;;;;;;5067858;28;20226;-64
2021/12/11 07:12:21;;;;;;;39.77;7.53;;;2.70;99.90;;;;;;5068319;28;20241;-64
2021/12/11 07:14:51;;;;;;;23.50;7.20;;;2.80;99.90;;;;;;5066084;28;20258;-64
2021/12/11 07:17:21;;;;;;;37.43;7.50;;;2.80;99.90;;;;;;5059654;28;20202;-64
2021/12/11 07:19:51;;;;;;;30.70;7.40;;;2.70;99.90;;;;;;5061449;28;20298;-64
2021/12/11 07:22:20;;;;;;;36.57;8.67;;;2.70;99.90;;;;;;5062235;28;20223;-63
2021/12/11 07:24:55;;;;;;;24.50;7.47;;;2.70;99.90;;;;;;5064298;28;20195;-64
2021/12/11 07:27:23;;;;;;;22.73;7.43;;;2.70;99.90;;;;;;5078004;28;20278;-64
2021/12/11 07:29:53;;;;;;;32.57;8.17;;;2.70;99.90;;;;;;5061016;28;20224;-64
2021/12/11 07:32:21;;;;;;;38.10;9.40;;;2.60;99.90;;;;;;5066666;28;20264;-63
2021/12/11 07:34:50;;;;;;;48.00;11.60;;;2.70;99.90;;;;;;5064697;28;20196;-64
2021/12/11 07:37:19;;;;;;;38.53;9.50;;;2.70;99.90;;;;;;5063273;28;20295;-64
2021/12/11 07:39:47;;;;;;;42.53;10.80;;;2.70;99.90;;;;;;5059560;28;20303;-64
2021/12/11 07:42:16;;;;;;;35.53;8.43;;;2.70;99.90;;;;;;5066350;28;20216;-64
2021/12/11 07:44:44;;;;;;;49.77;10.33;;;2.70;99.90;;;;;;5068751;28;20200;-64
2021/12/11 07:47:14;;;;;;;31.60;9.03;;;2.70;99.90;;;;;;5069444;28;21297;-64
2021/12/11 07:49:43;;;;;;;31.80;8.73;;;2.70;99.90;;;;;;5056143;28;20235;-64
2021/12/11 07:52:11;;;;;;;35.20;9.07;;;2.70;99.90;;;;;;5072472;28;20191;-64
2021/12/11 07:54:40;;;;;;;35.70;8.93;;;2.70;99.90;;;;;;5065880;28;20325;-64
2021/12/11 07:57:08;;;;;;;36.03;9.30;;;2.70;99.90;;;;;;5047458;28;20246;-64
2021/12/11 07:59:37;;;;;;;43.30;9.40;;;2.70;99.90;;;;;;5065090;28;20286;-64
2021/12/11 08:02:06;;;;;;;36.47;8.73;;;2.70;99.90;;;;;;5065591;28;20277;-64
2021/12/11 08:04:38;;;;;;;30.20;8.13;;;2.70;99.90;;;;;;5065497;28;20668;-64
2021/12/11 08:07:07;;;;;;;38.70;8.87;;;2.70;99.90;;;;;;5068019;28;20200;-64
2021/12/11 08:09:35;;;;;;;30.37;8.90;;;2.80;99.90;;;;;;5064616;28;20803;-64
2021/12/11 08:12:05;;;;;;;32.00;9.20;;;2.80;99.90;;;;;;5065640;28;20196;-64
2021/12/11 08:14:34;;;;;;;34.13;10.10;;;2.90;99.90;;;;;;5061692;28;20220;-64
2021/12/11 08:17:06;;;;;;;38.53;11.07;;;3.00;99.90;;;;;;5078572;28;20274;-64
2021/12/11 08:19:36;;;;;;;47.03;15.10;;;3.00;99.90;;;;;;5066046;28;20223;-64
2021/12/11 08:22:11;;;;;;;35.33;11.40;;;3.00;99.90;;;;;;5068176;28;20293;-64
2021/12/11 08:24:40;;;;;;;38.20;11.67;;;3.00;99.90;;;;;;5067983;28;20195;-64
2021/12/11 08:27:14;;;;;;;42.20;10.40;;;3.00;99.90;;;;;;5068572;28;20204;-63
2021/12/11 08:29:49;;;;;;;42.10;10.77;;;3.00;99.90;;;;;;5067498;28;20819;-64
2021/12/11 08:32:20;;;;;;;33.87;10.37;;;2.90;99.90;;;;;;5073074;28;20207;-63
2021/12/11 08:34:50;;;;;;;39.63;10.77;;;3.00;99.90;;;;;;5070253;28;20188;-64
2021/12/11 08:37:21;;;;;;;40.40;10.57;;;3.00;99.90;;;;;;5073458;28;20280;-64
2021/12/11 08:39:49;;;;;;;46.00;11.00;;;3.10;99.90;;;;;;5059723;28;20273;-64
2021/12/11 08:42:21;;;;;;;48.53;12.20;;;3.10;99.90;;;;;;5062588;28;20214;-64
2021/12/11 08:44:57;;;;;;;34.53;12.03;;;3.10;99.90;;;;;;5066681;28;20258;-64
2021/12/11 08:47:27;;;;;;;45.13;13.40;;;3.10;99.90;;;;;;5061973;28;20199;-63
2021/12/11 08:49:57;;;;;;;34.30;12.20;;;3.10;99.90;;;;;;5079437;28;20207;-64
2021/12/11 08:52:29;;;;;;;43.17;13.40;;;3.10;99.90;;;;;;5064371;28;20682;-64
2021/12/11 08:54:59;;;;;;;42.30;12.63;;;3.10;99.90;;;;;;5067025;28;20247;-64
2021/12/11 08:57:32;;;;;;;34.73;13.90;;;3.10;99.90;;;;;;5065542;28;20196;-64
2021/12/11 09:00:19;;;;;;;39.10;14.27;;;3.20;99.90;;;;;;5064469;28;20199;-64
2021/12/11 09:02:51;;;;;;;44.40;13.40;;;3.30;99.90;;;;;;5068214;28;20211;-64
2021/12/11 09:05:27;;;;;;;41.50;13.73;;;3.40;99.90;;;;;;5057748;28;20188;-64
2021/12/11 09:08:02;;;;;;;51.67;14.40;;;3.60;99.90;;;;;;5066214;28;20199;-64
2021/12/11 09:10:36;;;;;;;44.00;15.30;;;3.80;99.90;;;;;;5065533;28;20231;-64
2021/12/11 09:13:09;;;;;;;44.47;14.03;;;3.80;99.90;;;;;;5065553;28;20224;-64
2021/12/11 09:15:42;;;;;;;51.23;15.47;;;4.00;99.90;;;;;;5065292;28;20204;-64
2021/12/11 09:18:15;;;;;;;38.00;14.87;;;4.10;99.90;;;;;;5064546;28;20192;-63
2021/12/11 09:20:50;;;;;;;38.97;13.93;;;4.30;99.90;;;;;;5060379;28;20200;-63
2021/12/11 09:23:24;;;;;;;44.23;15.83;;;4.40;99.90;;;;;;5067493;28;20207;-64
2021/12/11 09:25:59;;;;;;;38.90;13.43;;;4.50;99.90;;;;;;5080446;28;20202;-64
2021/12/11 09:28:32;;;;;;;36.03;13.40;;;4.50;99.90;;;;;;5070940;28;20188;-64
2021/12/11 09:31:07;;;;;;;42.63;15.30;;;4.60;99.90;;;;;;5067628;28;20261;-64
2021/12/11 09:33:41;;;;;;;54.17;17.90;;;4.70;99.90;;;;;;5066179;28;20191;-64
2021/12/11 09:36:17;;;;;;;67.43;20.80;;;4.70;99.90;;;;;;5064254;28;20206;-64
2021/12/11 09:38:48;;;;;;;68.17;20.23;;;4.80;99.90;;;;;;5066902;28;20246;-64
2021/12/11 09:41:20;;;;;;;51.60;16.47;;;4.90;99.90;;;;;;5066238;28;20200;-64
2021/12/11 09:43:56;;;;;;;38.20;13.40;;;4.80;99.90;;;;;;5067068;28;20290;-64
2021/12/11 09:46:30;;;;;;;48.33;14.13;;;4.80;99.90;;;;;;5064968;28;20207;-64
2021/12/11 09:49:02;;;;;;;26.30;11.60;;;4.80;99.90;;;;;;5065285;28;20203;-63
2021/12/11 09:51:36;;;;;;;41.37;11.43;;;4.80;99.90;;;;;;5065738;28;20253;-64
2021/12/11 09:54:08;;;;;;;30.30;12.33;;;4.80;99.90;;;;;;5066290;28;20252;-64
2021/12/11 09:56:46;;;;;;;38.33;10.80;;;4.80;99.90;;;;;;5073047;28;20203;-64
2021/12/11 09:59:19;;;;;;;35.23;11.17;;;4.80;99.90;;;;;;5059241;28;20278;-64
2021/12/11 10:01:53;;;;;;;33.17;10.87;;;4.90;99.90;;;;;;5065954;28;20216;-64
2021/12/11 10:04:30;;;;;;;34.13;10.40;;;4.90;99.90;;;;;;5063408;28;20188;-64
2021/12/11 10:07:26;;;;;;;25.20;10.40;;;4.70;99.90;;;;;;5075932;28;20199;-64
2021/12/11 10:10:00;;;;;;;34.33;11.60;;;4.80;99.90;;;;;;5064793;28;20262;-64
2021/12/11 10:12:33;;;;;;;36.40;11.40;;;4.90;99.90;;;;;;5062474;28;20257;-64
2021/12/11 10:15:09;;;;;;;35.20;11.60;;;5.10;99.90;;;;;;5067377;28;20192;-64
2021/12/11 10:17:42;;;;;;;29.23;11.03;;;5.30;99.90;;;;;;5065920;28;20740;-64
2021/12/11 10:20:17;;;;;;;37.17;11.60;;;5.40;99.90;;;;;;5067018;28;20222;-64
2021/12/11 10:22:48;;;;;;;31.43;10.87;;;5.50;99.90;;;;;;5064940;28;20734;-64
2021/12/11 10:25:20;;;;;;;24.07;10.57;;;5.60;99.90;;;;;;5065168;28;20207;-64
2021/12/11 10:27:49;;;;;;;24.27;10.67;;;5.70;99.90;;;;;;5066036;28;20196;-64
2021/12/11 10:30:23;;;;;;;32.03;10.80;;;5.80;99.90;;;;;;5085525;28;20248;-64
2021/12/11 10:32:52;;;;;;;35.40;10.87;;;5.90;99.90;;;;;;5073263;28;20198;-64
2021/12/11 10:35:26;;;;;;;24.73;9.60;;;6.00;99.90;;;;;;5070242;28;20283;-64
2021/12/11 10:38:00;;;;;;;24.83;9.23;;;6.00;99.90;;;;;;5069779;28;20191;-64
2021/12/11 10:40:32;;;;;;;19.73;8.97;;;6.20;99.90;;;;;;5064850;28;21012;-64
2021/12/11 10:43:04;;;;;;;25.50;9.20;;;6.30;99.90;;;;;;5065491;28;20211;-65
2021/12/11 10:45:34;;;;;;;26.13;9.07;;;6.30;99.90;;;;;;5071529;28;20592;-64
2021/12/11 10:48:07;;;;;;;27.17;8.60;;;6.40;99.90;;;;;;5078510;28;20809;-64
2021/12/11 10:50:38;;;;;;;22.30;9.07;;;6.50;99.90;;;;;;5065061;28;20688;-65
2021/12/11 10:53:09;;;;;;;23.93;8.77;;;6.50;99.90;;;;;;5067022;28;20210;-64
2021/12/11 10:55:39;;;;;;;27.17;8.97;;;6.60;99.90;;;;;;5062470;28;20188;-64
2021/12/11 10:58:15;;;;;;;17.87;8.33;;;6.80;99.90;;;;;;5066363;28;20793;-64
2021/12/11 11:00:52;;;;;;;31.10;9.53;;;6.80;99.90;;;;;;5062007;28;20294;-64
2021/12/11 11:03:21;;;;;;;22.90;9.10;;;6.90;99.90;;;;;;5062275;28;20199;-64
2021/12/11 11:05:50;;;;;;;20.67;8.20;;;7.00;99.90;;;;;;5068287;28;20620;-64
2021/12/11 11:08:19;;;;;;;25.80;8.47;;;7.00;99.90;;;;;;5063567;28;20200;-64
2021/12/11 11:10:51;;;;;;;26.50;8.77;;;7.00;99.90;;;;;;5061064;28;20721;-64
2021/12/11 11:13:22;;;;;;;18.63;7.90;;;7.20;99.90;;;;;;5066185;28;20204;-64
2021/12/11 11:15:53;;;;;;;22.30;8.07;;;7.20;99.90;;;;;;5065119;28;20664;-64
2021/12/11 11:18:23;;;;;;;17.07;7.50;;;7.20;99.90;;;;;;5066744;28;20199;-64
2021/12/11 11:20:58;;;;;;;22.57;7.73;;;7.20;99.90;;;;;;5066271;28;20192;-65
2021/12/11 11:23:27;;;;;;;17.87;7.60;;;7.20;99.90;;;;;;5064379;28;20206;-64
2021/12/11 11:26:00;;;;;;;24.37;7.90;;;7.20;99.90;;;;;;5064935;28;20613;-64
2021/12/11 11:28:33;;;;;;;24.20;7.90;;;7.30;99.90;;;;;;5067016;28;20224;-64
2021/12/11 11:31:08;;;;;;;17.80;7.57;;;7.30;99.90;;;;;;5065472;28;20210;-64
2021/12/11 11:33:37;;;;;;;15.73;6.90;;;7.40;99.90;;;;;;5080537;28;20188;-64
2021/12/11 11:36:13;;;;;;;25.70;8.30;;;7.50;99.90;;;;;;5061910;28;20296;-64
2021/12/11 11:38:45;;;;;;;17.73;7.33;;;7.60;99.90;;;;;;5066023;28;20287;-63
2021/12/11 11:41:17;;;;;;;18.67;6.57;;;7.70;99.90;;;;;;5064538;28;20661;-64
2021/12/11 11:43:47;;;;;;;15.20;6.10;;;7.80;99.90;;;;;;5066377;28;20804;-64
2021/12/11 11:46:18;;;;;;;15.03;6.37;;;7.80;99.90;;;;;;5069604;28;20556;-64
2021/12/11 11:48:50;;;;;;;22.43;6.80;;;7.90;99.90;;;;;;5070447;28;20207;-64
2021/12/11 11:51:22;;;;;;;20.17;6.80;;;7.90;99.90;;;;;;5064983;28;20735;-64
2021/12/11 11:53:51;;;;;;;23.47;6.70;;;7.90;99.90;;;;;;5065686;28;20200;-64
2021/12/11 11:56:29;;;;;;;17.17;6.57;;;7.90;99.90;;;;;;5067818;28;20690;-64
2021/12/11 11:58:58;;;;;;;12.00;6.40;;;8.00;99.90;;;;;;5072506;28;20249;-65
2021/12/11 12:01:34;;;;;;;21.23;6.73;;;8.00;99.90;;;;;;5066297;28;20265;-64
2021/12/11 12:04:41;;;;;;;21.90;5.80;;;8.10;99.90;;;;;;5064827;28;20259;-64
2021/12/11 12:07:47;;;;;;;17.10;6.17;;;8.10;99.90;;;;;;5069926;28;20195;-64
2021/12/11 12:10:19;;;;;;;15.93;6.63;;;8.20;99.90;;;;;;5063632;28;20193;-64
2021/12/11 12:12:49;;;;;;;13.93;5.50;;;8.20;99.90;;;;;;5066533;28;20196;-64
2021/12/11 12:15:24;;;;;;;17.80;6.10;;;8.20;99.90;;;;;;5063895;28;20226;-64
2021/12/11 12:17:53;;;;;;;14.23;5.77;;;8.30;99.90;;;;;;5084362;28;20277;-65
2021/12/11 12:20:23;;;;;;;20.43;5.60;;;8.30;99.90;;;;;;5073382;28;20230;-64
2021/12/11 12:22:54;;;;;;;15.97;5.77;;;8.30;99.90;;;;;;5067048;28;20222;-65
2021/12/11 12:25:24;;;;;;;13.77;6.17;;;8.30;99.90;;;;;;5069738;28;20212;-65
2021/12/11 12:27:53;;;;;;;15.67;5.90;;;8.40;99.90;;;;;;5076010;28;20223;-65
2021/12/11 12:30:27;;;;;;;17.10;6.10;;;8.20;99.90;;;;;;5075090;28;20250;-64
2021/12/11 12:32:58;;;;;;;15.23;6.27;;;8.10;99.90;;;;;;5074890;28;20249;-65
2021/12/11 12:35:30;;;;;;;16.97;6.37;;;8.00;99.90;;;;;;5074597;28;20657;-65
2021/12/11 12:38:00;;;;;;;11.97;5.80;;;7.90;99.90;;;;;;5077876;28;20683;-65
2021/12/11 12:40:32;;;;;;;19.83;6.60;;;7.90;99.90;;;;;;5067865;28;20662;-64
2021/12/11 12:43:11;;;;;;;14.90;5.70;;;8.00;99.90;;;;;;5079638;28;20216;-64
2021/12/11 12:45:43;;;;;;;15.97;6.10;;;8.10;99.90;;;;;;5077097;28;20608;-64
2021/12/11 12:48:16;;;;;;;17.00;5.93;;;8.30;99.90;;;;;;5070268;28;20222;-65
2021/12/11 12:50:49;;;;;;;13.43;5.30;;;8.30;99.90;;;;;;5070101;28;20233;-65
2021/12/11 12:53:18;;;;;;;16.37;5.20;;;8.30;99.90;;;;;;5076980;28;20742;-64
2021/12/11 12:55:51;;;;;;;10.30;4.83;;;8.20;99.90;;;;;;5077878;28;20800;-64
2021/12/11 12:58:23;;;;;;;16.40;5.07;;;8.20;99.90;;;;;;5067012;28;20200;-65
2021/12/11 13:00:57;;;;;;;13.57;5.50;;;8.20;99.90;;;;;;5069304;28;20200;-64
2021/12/11 13:03:32;;;;;;;13.60;5.47;;;8.20;99.90;;;;;;5074371;28;20207;-65
2021/12/11 13:06:05;;;;;;;13.87;5.20;;;8.20;99.90;;;;;;5067638;28;20640;-65
2021/12/11 13:08:40;;;;;;;11.57;4.90;;;8.20;99.90;;;;;;5069205;28;20215;-64
2021/12/11 13:11:14;;;;;;;14.70;4.93;;;8.20;99.90;;;;;;5070073;28;20274;-65
2021/12/11 13:13:44;;;;;;;16.33;4.63;;;8.20;99.90;;;;;;5069810;28;20195;-64
2021/12/11 13:16:16;;;;;;;17.50;4.80;;;8.20;99.90;;;;;;5070687;28;20187;-64
2021/12/11 13:18:49;;;;;;;14.67;5.27;;;8.20;99.90;;;;;;5069808;28;20204;-64